sensor_id;sensor_type;location;lat;lon;timestamp;P1;durP1;ratioP1;P2;durP2;ratioP2
40322;SDS011;26030;51.164;17.100;2023-02-13T00:04:13;9.20;;;5.10;;
40322;SDS011;26030;51.164;17.100;2023-02-13T00:09:17;7.90;;;5.30;;
40322;SDS011;26030;51.164;17.100;2023-02-13T00:14:21;8.20;;;5.50;;
40322;SDS011;26030;51.164;17.100;2023-02-13T00:19:25;15.00;;;5.90;;
40322;SDS011;26030;51.164;17.100;2023-02-13T00:24:29;9.10;;;5.20;;
40322;SDS011;26030;51.164;17.100;2023-02-13T00:29:33;7.70;;;4.80;;
40322;SDS011;26030;51.164;17.100;2023-02-13T00:34:37;7.70;;;5.50;;
40322;SDS011;26030;51.164;17.100;2023-02-13T00:39:41;9.00;;;4.80;;
40322;SDS011;26030;51.164;17.100;2023-02-13T00:44:45;8.10;;;5.50;;
40322;SDS011;26030;51.164;17.100;2023-02-13T00:49:49;7.50;;;5.30;;
40322;SDS011;26030;51.164;17.100;2023-02-13T00:54:53;9.90;;;5.30;;
40322;SDS011;26030;51.164;17.100;2023-02-13T00:59:57;7.70;;;4.70;;
40322;SDS011;26030;51.164;17.100;2023-02-13T01:05:02;9.00;;;4.90;;
40322;SDS011;26030;51.164;17.100;2023-02-13T01:10:06;8.60;;;4.50;;
40322;SDS011;26030;51.164;17.100;2023-02-13T01:15:10;6.70;;;4.60;;
40322;SDS011;26030;51.164;17.100;2023-02-13T01:20:15;5.00;;;4.50;;
40322;SDS011;26030;51.164;17.100;2023-02-13T01:25:20;7.20;;;4.70;;
40322;SDS011;26030;51.164;17.100;2023-02-13T01:30:25;5.20;;;4.50;;
40322;SDS011;26030;51.164;17.100;2023-02-13T01:35:30;6.20;;;4.10;;
40322;SDS011;26030;51.164;17.100;2023-02-13T01:40:34;5.90;;;4.40;;
40322;SDS011;26030;51.164;17.100;2023-02-13T01:45:39;7.40;;;4.90;;
40322;SDS011;26030;51.164;17.100;2023-02-13T01:51:03;5.50;;;4.20;;
40322;SDS011;26030;51.164;17.100;2023-02-13T01:56:23;5.10;;;3.60;;
40322;SDS011;26030;51.164;17.100;2023-02-13T02:01:30;6.50;;;4.20;;
40322;SDS011;26030;51.164;17.100;2023-02-13T02:06:39;4.40;;;3.90;;
40322;SDS011;26030;51.164;17.100;2023-02-13T02:12:06;4.60;;;4.00;;
40322;SDS011;26030;51.164;17.100;2023-02-13T02:17:14;6.80;;;4.30;;
40322;SDS011;26030;51.164;17.100;2023-02-13T02:27:53;4.80;;;3.50;;
40322;SDS011;26030;51.164;17.100;2023-02-13T02:33:34;6.00;;;4.00;;
40322;SDS011;26030;51.164;17.100;2023-02-13T02:49:06;4.70;;;3.80;;
40322;SDS011;26030;51.164;17.100;2023-02-13T02:54:57;3.80;;;3.20;;
40322;SDS011;26030;51.164;17.100;2023-02-13T03:00:14;4.90;;;3.30;;
40322;SDS011;26030;51.164;17.100;2023-02-13T03:05:40;4.50;;;3.90;;
40322;SDS011;26030;51.164;17.100;2023-02-13T03:11:05;5.60;;;3.70;;
40322;SDS011;26030;51.164;17.100;2023-02-13T03:16:28;4.20;;;3.30;;
40322;SDS011;26030;51.164;17.100;2023-02-13T03:21:57;3.70;;;3.30;;
40322;SDS011;26030;51.164;17.100;2023-02-13T03:38:41;5.30;;;3.60;;
40322;SDS011;26030;51.164;17.100;2023-02-13T03:44:16;3.80;;;3.10;;
40322;SDS011;26030;51.164;17.100;2023-02-13T03:49:25;4.50;;;3.50;;
40322;SDS011;26030;51.164;17.100;2023-02-13T03:54:58;3.90;;;3.40;;
40322;SDS011;26030;51.164;17.100;2023-02-13T04:00:24;3.60;;;3.30;;
40322;SDS011;26030;51.164;17.100;2023-02-13T04:05:37;3.60;;;3.30;;
40322;SDS011;26030;51.164;17.100;2023-02-13T04:10:53;3.20;;;2.90;;
40322;SDS011;26030;51.164;17.100;2023-02-13T04:16:10;4.30;;;3.20;;
40322;SDS011;26030;51.164;17.100;2023-02-13T04:21:16;3.50;;;3.20;;
40322;SDS011;26030;51.164;17.100;2023-02-13T04:26:22;3.90;;;3.50;;
40322;SDS011;26030;51.164;17.100;2023-02-13T04:31:26;3.50;;;3.20;;
40322;SDS011;26030;51.164;17.100;2023-02-13T04:36:31;3.70;;;3.30;;
40322;SDS011;26030;51.164;17.100;2023-02-13T04:41:35;3.60;;;3.30;;
40322;SDS011;26030;51.164;17.100;2023-02-13T04:46:39;3.80;;;3.40;;
40322;SDS011;26030;51.164;17.100;2023-02-13T04:51:42;3.40;;;3.10;;
40322;SDS011;26030;51.164;17.100;2023-02-13T04:56:47;3.60;;;3.10;;
40322;SDS011;26030;51.164;17.100;2023-02-13T05:01:51;3.20;;;2.90;;
40322;SDS011;26030;51.164;17.100;2023-02-13T05:06:55;4.00;;;3.10;;
40322;SDS011;26030;51.164;17.100;2023-02-13T05:11:59;4.10;;;3.30;;
40322;SDS011;26030;51.164;17.100;2023-02-13T05:17:03;2.90;;;2.70;;
40322;SDS011;26030;51.164;17.100;2023-02-13T05:22:08;3.00;;;2.70;;
40322;SDS011;26030;51.164;17.100;2023-02-13T05:27:32;3.30;;;3.00;;
40322;SDS011;26030;51.164;17.100;2023-02-13T05:32:36;4.30;;;2.60;;
40322;SDS011;26030;51.164;17.100;2023-02-13T05:37:40;2.80;;;2.60;;
40322;SDS011;26030;51.164;17.100;2023-02-13T05:42:45;2.80;;;2.40;;
40322;SDS011;26030;51.164;17.100;2023-02-13T05:47:48;4.50;;;3.00;;
40322;SDS011;26030;51.164;17.100;2023-02-13T05:52:52;3.90;;;2.90;;
40322;SDS011;26030;51.164;17.100;2023-02-13T05:57:57;5.30;;;2.60;;
40322;SDS011;26030;51.164;17.100;2023-02-13T06:03:01;3.10;;;2.80;;
40322;SDS011;26030;51.164;17.100;2023-02-13T06:08:05;3.20;;;2.80;;
40322;SDS011;26030;51.164;17.100;2023-02-13T06:13:09;4.50;;;3.10;;
40322;SDS011;26030;51.164;17.100;2023-02-13T06:18:13;6.20;;;3.00;;
40322;SDS011;26030;51.164;17.100;2023-02-13T06:23:18;3.20;;;3.00;;
40322;SDS011;26030;51.164;17.100;2023-02-13T06:28:22;4.10;;;2.50;;
40322;SDS011;26030;51.164;17.100;2023-02-13T06:33:26;3.10;;;2.80;;
40322;SDS011;26030;51.164;17.100;2023-02-13T06:38:30;2.40;;;2.20;;
40322;SDS011;26030;51.164;17.100;2023-02-13T06:43:35;4.80;;;2.50;;
40322;SDS011;26030;51.164;17.100;2023-02-13T06:48:44;5.70;;;2.50;;
40322;SDS011;26030;51.164;17.100;2023-02-13T06:53:49;3.10;;;2.80;;
40322;SDS011;26030;51.164;17.100;2023-02-13T06:58:53;4.50;;;2.80;;
40322;SDS011;26030;51.164;17.100;2023-02-13T07:03:57;4.00;;;2.60;;
40322;SDS011;26030;51.164;17.100;2023-02-13T07:09:02;5.00;;;2.90;;
40322;SDS011;26030;51.164;17.100;2023-02-13T07:14:08;4.90;;;2.60;;
40322;SDS011;26030;51.164;17.100;2023-02-13T07:19:12;2.80;;;2.60;;
40322;SDS011;26030;51.164;17.100;2023-02-13T07:24:17;2.50;;;2.30;;
40322;SDS011;26030;51.164;17.100;2023-02-13T07:29:21;3.00;;;2.70;;
40322;SDS011;26030;51.164;17.100;2023-02-13T07:34:25;2.90;;;2.40;;
40322;SDS011;26030;51.164;17.100;2023-02-13T07:39:29;3.70;;;2.40;;
40322;SDS011;26030;51.164;17.100;2023-02-13T07:44:34;4.60;;;3.00;;
40322;SDS011;26030;51.164;17.100;2023-02-13T07:49:38;3.00;;;2.70;;
40322;SDS011;26030;51.164;17.100;2023-02-13T07:54:43;6.50;;;3.00;;
40322;SDS011;26030;51.164;17.100;2023-02-13T07:59:50;3.10;;;2.70;;
40322;SDS011;26030;51.164;17.100;2023-02-13T08:04:54;3.90;;;2.50;;
40322;SDS011;26030;51.164;17.100;2023-02-13T08:10:04;3.80;;;3.10;;
40322;SDS011;26030;51.164;17.100;2023-02-13T08:15:27;8.60;;;3.60;;
40322;SDS011;26030;51.164;17.100;2023-02-13T08:20:32;4.90;;;3.60;;
40322;SDS011;26030;51.164;17.100;2023-02-13T08:25:37;6.70;;;3.30;;
40322;SDS011;26030;51.164;17.100;2023-02-13T08:30:41;4.70;;;2.90;;
40322;SDS011;26030;51.164;17.100;2023-02-13T08:35:46;6.90;;;3.20;;
40322;SDS011;26030;51.164;17.100;2023-02-13T08:40:55;4.80;;;3.30;;
40322;SDS011;26030;51.164;17.100;2023-02-13T08:46:14;5.20;;;3.10;;
40322;SDS011;26030;51.164;17.100;2023-02-13T08:51:19;3.30;;;3.00;;
40322;SDS011;26030;51.164;17.100;2023-02-13T08:56:23;5.50;;;3.30;;
40322;SDS011;26030;51.164;17.100;2023-02-13T09:01:27;4.00;;;3.30;;
40322;SDS011;26030;51.164;17.100;2023-02-13T09:06:32;3.30;;;3.00;;
40322;SDS011;26030;51.164;17.100;2023-02-13T09:11:36;4.60;;;4.00;;
40322;SDS011;26030;51.164;17.100;2023-02-13T09:16:40;3.40;;;3.00;;
40322;SDS011;26030;51.164;17.100;2023-02-13T09:21:45;4.20;;;3.60;;
40322;SDS011;26030;51.164;17.100;2023-02-13T09:26:49;3.60;;;3.30;;
40322;SDS011;26030;51.164;17.100;2023-02-13T09:31:53;7.30;;;3.60;;
40322;SDS011;26030;51.164;17.100;2023-02-13T09:36:57;3.90;;;3.30;;
40322;SDS011;26030;51.164;17.100;2023-02-13T09:42:05;5.20;;;3.40;;
40322;SDS011;26030;51.164;17.100;2023-02-13T09:52:33;4.50;;;3.00;;
40322;SDS011;26030;51.164;17.100;2023-02-13T09:57:43;6.10;;;3.10;;
40322;SDS011;26030;51.164;17.100;2023-02-13T10:24:30;3.80;;;2.50;;
40322;SDS011;26030;51.164;17.100;2023-02-13T10:29:38;4.00;;;2.60;;
40322;SDS011;26030;51.164;17.100;2023-02-13T10:42:19;4.10;;;2.80;;
40322;SDS011;26030;51.164;17.100;2023-02-13T10:58:21;3.20;;;2.40;;
40322;SDS011;26030;51.164;17.100;2023-02-13T11:03:28;2.80;;;2.60;;
40322;SDS011;26030;51.164;17.100;2023-02-13T11:08:37;4.50;;;2.50;;
40322;SDS011;26030;51.164;17.100;2023-02-13T11:26:36;2.60;;;2.10;;
40322;SDS011;26030;51.164;17.100;2023-02-13T11:31:39;2.50;;;1.90;;
40322;SDS011;26030;51.164;17.100;2023-02-13T11:36:43;4.30;;;2.00;;
40322;SDS011;26030;51.164;17.100;2023-02-13T11:41:48;4.70;;;1.80;;
40322;SDS011;26030;51.164;17.100;2023-02-13T11:46:58;4.00;;;1.70;;
40322;SDS011;26030;51.164;17.100;2023-02-13T11:52:33;4.90;;;1.70;;
40322;SDS011;26030;51.164;17.100;2023-02-13T11:57:37;8.80;;;1.90;;
40322;SDS011;26030;51.164;17.100;2023-02-13T12:02:48;6.50;;;1.60;;
40322;SDS011;26030;51.164;17.100;2023-02-13T12:07:59;2.70;;;1.70;;
40322;SDS011;26030;51.164;17.100;2023-02-13T12:13:30;2.90;;;1.60;;
40322;SDS011;26030;51.164;17.100;2023-02-13T12:18:48;2.00;;;1.70;;
40322;SDS011;26030;51.164;17.100;2023-02-13T12:24:13;2.00;;;1.70;;
40322;SDS011;26030;51.164;17.100;2023-02-13T12:45:41;1.60;;;1.50;;
40322;SDS011;26030;51.164;17.100;2023-02-13T12:56:07;1.60;;;1.40;;
40322;SDS011;26030;51.164;17.100;2023-02-13T13:22:04;2.10;;;1.40;;
40322;SDS011;26030;51.164;17.100;2023-02-13T13:27:21;2.00;;;1.20;;
40322;SDS011;26030;51.164;17.100;2023-02-13T13:32:27;4.60;;;1.60;;
40322;SDS011;26030;51.164;17.100;2023-02-13T13:37:55;1.90;;;1.20;;
40322;SDS011;26030;51.164;17.100;2023-02-13T13:59:16;2.80;;;1.60;;
40322;SDS011;26030;51.164;17.100;2023-02-13T14:04:38;2.80;;;1.50;;
40322;SDS011;26030;51.164;17.100;2023-02-13T14:09:46;2.00;;;1.60;;
40322;SDS011;26030;51.164;17.100;2023-02-13T14:14:52;3.40;;;1.60;;
40322;SDS011;26030;51.164;17.100;2023-02-13T14:19:56;3.40;;;1.30;;
40322;SDS011;26030;51.164;17.100;2023-02-13T14:25:05;3.10;;;1.50;;
40322;SDS011;26030;51.164;17.100;2023-02-13T14:30:31;4.70;;;1.70;;
40322;SDS011;26030;51.164;17.100;2023-02-13T14:35:37;5.00;;;1.60;;
40322;SDS011;26030;51.164;17.100;2023-02-13T14:40:50;2.80;;;1.80;;
40322;SDS011;26030;51.164;17.100;2023-02-13T14:46:32;5.90;;;1.70;;
40322;SDS011;26030;51.164;17.100;2023-02-13T14:51:44;5.80;;;1.60;;
40322;SDS011;26030;51.164;17.100;2023-02-13T14:56:51;1.80;;;1.50;;
40322;SDS011;26030;51.164;17.100;2023-02-13T15:02:02;6.80;;;1.70;;
40322;SDS011;26030;51.164;17.100;2023-02-13T15:07:25;7.60;;;1.80;;
40322;SDS011;26030;51.164;17.100;2023-02-13T15:12:35;5.10;;;1.60;;
40322;SDS011;26030;51.164;17.100;2023-02-13T15:17:40;7.20;;;1.60;;
40322;SDS011;26030;51.164;17.100;2023-02-13T15:22:45;4.00;;;1.80;;
40322;SDS011;26030;51.164;17.100;2023-02-13T15:27:52;6.60;;;1.80;;
40322;SDS011;26030;51.164;17.100;2023-02-13T15:33:03;1.50;;;1.40;;
40322;SDS011;26030;51.164;17.100;2023-02-13T15:43:33;3.40;;;1.80;;
40322;SDS011;26030;51.164;17.100;2023-02-13T15:48:39;4.40;;;2.00;;
40322;SDS011;26030;51.164;17.100;2023-02-13T15:54:03;1.90;;;1.80;;
40322;SDS011;26030;51.164;17.100;2023-02-13T15:59:08;5.70;;;2.10;;
40322;SDS011;26030;51.164;17.100;2023-02-13T16:04:15;2.20;;;1.80;;
40322;SDS011;26030;51.164;17.100;2023-02-13T16:09:31;7.50;;;1.90;;
40322;SDS011;26030;51.164;17.100;2023-02-13T16:14:45;4.20;;;2.10;;
40322;SDS011;26030;51.164;17.100;2023-02-13T16:20:03;5.40;;;2.00;;
40322;SDS011;26030;51.164;17.100;2023-02-13T16:30:34;3.90;;;2.10;;
40322;SDS011;26030;51.164;17.100;2023-02-13T16:35:53;6.20;;;2.00;;
40322;SDS011;26030;51.164;17.100;2023-02-13T16:41:07;22.10;;;3.20;;
40322;SDS011;26030;51.164;17.100;2023-02-13T16:46:33;6.90;;;2.20;;
40322;SDS011;26030;51.164;17.100;2023-02-13T16:51:50;3.50;;;2.00;;
40322;SDS011;26030;51.164;17.100;2023-02-13T17:02:42;7.70;;;1.90;;
40322;SDS011;26030;51.164;17.100;2023-02-13T17:08:00;3.90;;;1.90;;
40322;SDS011;26030;51.164;17.100;2023-02-13T17:13:18;5.60;;;2.00;;
40322;SDS011;26030;51.164;17.100;2023-02-13T17:18:26;2.70;;;1.80;;
40322;SDS011;26030;51.164;17.100;2023-02-13T17:23:33;3.40;;;2.30;;
40322;SDS011;26030;51.164;17.100;2023-02-13T17:28:38;4.40;;;1.80;;
40322;SDS011;26030;51.164;17.100;2023-02-13T17:33:45;3.70;;;1.90;;
40322;SDS011;26030;51.164;17.100;2023-02-13T17:38:51;6.80;;;2.10;;
40322;SDS011;26030;51.164;17.100;2023-02-13T17:43:57;3.30;;;1.90;;
40322;SDS011;26030;51.164;17.100;2023-02-13T17:49:05;3.00;;;1.80;;
40322;SDS011;26030;51.164;17.100;2023-02-13T17:54:11;2.30;;;1.70;;
40322;SDS011;26030;51.164;17.100;2023-02-13T17:59:18;4.10;;;1.80;;
40322;SDS011;26030;51.164;17.100;2023-02-13T18:04:24;5.00;;;1.80;;
40322;SDS011;26030;51.164;17.100;2023-02-13T18:09:31;4.70;;;1.70;;
40322;SDS011;26030;51.164;17.100;2023-02-13T18:14:37;4.70;;;1.80;;
40322;SDS011;26030;51.164;17.100;2023-02-13T18:19:44;2.30;;;1.60;;
40322;SDS011;26030;51.164;17.100;2023-02-13T18:24:50;8.00;;;2.20;;
40322;SDS011;26030;51.164;17.100;2023-02-13T18:29:59;3.50;;;2.00;;
40322;SDS011;26030;51.164;17.100;2023-02-13T18:35:06;5.50;;;2.00;;
40322;SDS011;26030;51.164;17.100;2023-02-13T18:40:15;3.20;;;1.70;;
40322;SDS011;26030;51.164;17.100;2023-02-13T18:45:23;5.00;;;1.80;;
40322;SDS011;26030;51.164;17.100;2023-02-13T18:50:30;3.80;;;1.80;;
40322;SDS011;26030;51.164;17.100;2023-02-13T18:55:38;9.10;;;1.80;;
40322;SDS011;26030;51.164;17.100;2023-02-13T19:00:45;3.70;;;1.80;;
40322;SDS011;26030;51.164;17.100;2023-02-13T19:05:52;8.90;;;2.30;;
40322;SDS011;26030;51.164;17.100;2023-02-13T19:11:00;9.00;;;2.00;;
40322;SDS011;26030;51.164;17.100;2023-02-13T19:16:16;8.80;;;2.40;;
40322;SDS011;26030;51.164;17.100;2023-02-13T19:21:25;4.90;;;1.70;;
40322;SDS011;26030;51.164;17.100;2023-02-13T19:26:33;10.50;;;2.80;;
40322;SDS011;26030;51.164;17.100;2023-02-13T19:31:39;6.80;;;2.30;;
40322;SDS011;26030;51.164;17.100;2023-02-13T19:36:47;4.70;;;2.20;;
40322;SDS011;26030;51.164;17.100;2023-02-13T19:41:53;5.20;;;2.10;;
40322;SDS011;26030;51.164;17.100;2023-02-13T19:47:00;6.50;;;2.50;;
40322;SDS011;26030;51.164;17.100;2023-02-13T19:52:09;8.30;;;2.20;;
40322;SDS011;26030;51.164;17.100;2023-02-13T19:57:15;11.60;;;3.00;;
40322;SDS011;26030;51.164;17.100;2023-02-13T20:02:22;12.50;;;2.70;;
40322;SDS011;26030;51.164;17.100;2023-02-13T20:07:31;9.50;;;2.60;;
40322;SDS011;26030;51.164;17.100;2023-02-13T20:12:38;5.70;;;2.20;;
40322;SDS011;26030;51.164;17.100;2023-02-13T20:17:50;4.50;;;2.50;;
40322;SDS011;26030;51.164;17.100;2023-02-13T20:22:57;10.90;;;2.50;;
40322;SDS011;26030;51.164;17.100;2023-02-13T20:28:03;7.90;;;3.20;;
40322;SDS011;26030;51.164;17.100;2023-02-13T20:33:19;16.30;;;2.90;;
40322;SDS011;26030;51.164;17.100;2023-02-13T20:38:28;8.60;;;2.60;;
40322;SDS011;26030;51.164;17.100;2023-02-13T20:43:38;5.10;;;3.00;;
40322;SDS011;26030;51.164;17.100;2023-02-13T20:48:46;5.60;;;2.50;;
40322;SDS011;26030;51.164;17.100;2023-02-13T20:53:53;7.70;;;3.60;;
40322;SDS011;26030;51.164;17.100;2023-02-13T20:59:00;9.10;;;3.20;;
40322;SDS011;26030;51.164;17.100;2023-02-13T21:04:08;3.90;;;2.60;;
40322;SDS011;26030;51.164;17.100;2023-02-13T21:09:15;5.10;;;2.90;;
40322;SDS011;26030;51.164;17.100;2023-02-13T21:14:22;4.90;;;3.30;;
40322;SDS011;26030;51.164;17.100;2023-02-13T21:19:28;8.50;;;2.50;;
40322;SDS011;26030;51.164;17.100;2023-02-13T21:24:35;6.50;;;2.70;;
40322;SDS011;26030;51.164;17.100;2023-02-13T21:29:41;8.90;;;3.30;;
40322;SDS011;26030;51.164;17.100;2023-02-13T21:34:47;12.90;;;3.20;;
40322;SDS011;26030;51.164;17.100;2023-02-13T21:39:52;4.70;;;2.80;;
40322;SDS011;26030;51.164;17.100;2023-02-13T21:44:56;4.30;;;2.80;;
40322;SDS011;26030;51.164;17.100;2023-02-13T21:50:04;7.10;;;3.00;;
40322;SDS011;26030;51.164;17.100;2023-02-13T21:55:08;8.40;;;2.80;;
40322;SDS011;26030;51.164;17.100;2023-02-13T22:00:13;8.70;;;2.90;;
40322;SDS011;26030;51.164;17.100;2023-02-13T22:05:18;5.10;;;2.70;;
40322;SDS011;26030;51.164;17.100;2023-02-13T22:10:22;4.00;;;2.80;;
40322;SDS011;26030;51.164;17.100;2023-02-13T22:15:26;3.30;;;2.80;;
40322;SDS011;26030;51.164;17.100;2023-02-13T22:20:31;4.60;;;3.10;;
40322;SDS011;26030;51.164;17.100;2023-02-13T22:25:35;3.90;;;2.30;;
40322;SDS011;26030;51.164;17.100;2023-02-13T22:30:40;5.90;;;3.30;;
40322;SDS011;26030;51.164;17.100;2023-02-13T22:35:45;6.90;;;2.80;;
40322;SDS011;26030;51.164;17.100;2023-02-13T22:40:50;5.60;;;2.80;;
40322;SDS011;26030;51.164;17.100;2023-02-13T22:45:54;14.00;;;3.80;;
40322;SDS011;26030;51.164;17.100;2023-02-13T22:51:09;4.30;;;2.50;;
40322;SDS011;26030;51.164;17.100;2023-02-13T22:56:14;2.50;;;2.20;;
40322;SDS011;26030;51.164;17.100;2023-02-13T23:01:19;4.50;;;3.10;;
40322;SDS011;26030;51.164;17.100;2023-02-13T23:06:24;5.50;;;2.50;;
40322;SDS011;26030;51.164;17.100;2023-02-13T23:11:29;6.00;;;2.70;;
40322;SDS011;26030;51.164;17.100;2023-02-13T23:16:52;4.50;;;2.80;;
40322;SDS011;26030;51.164;17.100;2023-02-13T23:22:15;3.30;;;2.60;;
40322;SDS011;26030;51.164;17.100;2023-02-13T23:27:19;3.10;;;2.40;;
40322;SDS011;26030;51.164;17.100;2023-02-13T23:32:23;3.20;;;2.00;;
40322;SDS011;26030;51.164;17.100;2023-02-13T23:37:28;3.00;;;2.70;;
40322;SDS011;26030;51.164;17.100;2023-02-13T23:42:32;3.50;;;2.10;;
40322;SDS011;26030;51.164;17.100;2023-02-13T23:47:37;2.30;;;2.10;;
40322;SDS011;26030;51.164;17.100;2023-02-13T23:52:41;2.30;;;2.10;;
40322;SDS011;26030;51.164;17.100;2023-02-13T23:57:45;3.90;;;2.10;;
